Time,TemperatureF,DewpointF,PressureIn,WindDirection,WindDirectionDegrees,WindSpeedMPH,WindSpeedGustMPH,Humidity,HourlyPrecipIn,Conditions,Clouds,dailyrainin,SolarRadiationWatts/m^2,SoftwareType,DateUTC
2013-03-07 00:01:00,32.0,27.0,-100.00,NNE,22,1.0,6.0,80,0.00,,,0.07,0.000000,,2013-03-07 08:01:00,
2013-03-07 00:34:00,33.0,29.0,-100.00,North,8,1.0,7.0,85,0.00,,,0.07,0.000000,,2013-03-07 08:34:00,
2013-03-07 00:44:00,33.0,29.0,-100.00,North,8,1.0,7.0,85,0.00,,,0.07,0.000000,,2013-03-07 08:44:00,
2013-03-07 00:53:00,33.0,29.0,-100.00,North,8,1.0,7.0,85,0.00,,,0.07,0.000000,,2013-03-07 08:53:00,
2013-03-07 01:02:00,33.0,29.0,-100.00,North,8,1.0,7.0,85,0.00,,,0.07,0.000000,,2013-03-07 09:02:00,
2013-03-07 01:33:00,32.0,27.0,-100.00,NW,315,1.0,6.0,81,0.00,,,0.07,0.000000,,2013-03-07 09:33:00,
2013-03-07 01:43:00,32.0,27.0,-100.00,NW,315,1.0,6.0,81,0.00,,,0.07,0.000000,,2013-03-07 09:43:00,
2013-03-07 01:52:00,32.0,27.0,-100.00,NW,315,1.0,6.0,81,0.00,,,0.07,0.000000,,2013-03-07 09:52:00,
2013-03-07 02:01:00,32.0,27.0,-100.00,NW,315,1.0,6.0,81,0.00,,,0.07,0.000000,,2013-03-07 10:01:00,
2013-03-07 02:33:00,33.0,29.0,-100.00,South,176,0.0,9.0,84,0.00,,,0.07,0.000000,,2013-03-07 10:33:00,
2013-03-07 02:43:00,33.0,29.0,-100.00,South,176,0.0,9.0,84,0.00,,,0.07,0.000000,,2013-03-07 10:43:00,
2013-03-07 02:52:00,33.0,29.0,-100.00,South,176,0.0,9.0,84,0.00,,,0.07,0.000000,,2013-03-07 10:52:00,
2013-03-07 03:01:00,33.0,29.0,-100.00,South,176,0.0,9.0,84,0.00,,,0.07,0.000000,,2013-03-07 11:01:00,
2013-03-07 03:34:00,33.0,29.0,-100.00,SW,216,1.0,7.0,84,0.00,,,-99.99,0.000000,,2013-03-07 11:34:00,
2013-03-07 03:43:00,33.0,29.0,-100.00,SW,216,1.0,7.0,84,0.00,,,-99.99,0.000000,,2013-03-07 11:43:00,
2013-03-07 03:53:00,33.0,29.0,-100.00,SW,216,1.0,7.0,84,0.00,,,-99.99,0.000000,,2013-03-07 11:53:00,
2013-03-07 04:02:00,33.0,29.0,-100.00,SW,216,1.0,7.0,84,0.00,,,-99.99,0.000000,,2013-03-07 12:02:00,
2013-03-07 04:34:00,33.0,28.0,-100.00,SSW,202,2.0,5.0,83,0.00,,,0.07,0.000000,,2013-03-07 12:34:00,
2013-03-07 04:43:00,33.0,28.0,-100.00,SSW,202,2.0,5.0,83,0.00,,,0.07,0.000000,,2013-03-07 12:43:00,
2013-03-07 04:52:00,33.0,28.0,-100.00,SSW,202,2.0,5.0,83,0.00,,,0.07,0.000000,,2013-03-07 12:52:00,
2013-03-07 05:02:00,33.0,28.0,-100.00,SSW,202,2.0,5.0,83,0.00,,,0.07,0.000000,,2013-03-07 13:02:00,
2013-03-07 06:33:00,33.0,28.0,-100.00,ENE,63,0.0,8.0,82,-99.99,,,0.07,0.000000,,2013-03-07 14:33:00,
2013-03-07 06:43:00,33.0,28.0,-100.00,ENE,63,0.0,8.0,82,-99.99,,,0.07,0.000000,,2013-03-07 14:43:00,
2013-03-07 06:53:00,33.0,28.0,-100.00,ENE,63,0.0,8.0,82,-99.99,,,0.07,0.000000,,2013-03-07 14:53:00,
2013-03-07 07:02:00,33.0,28.0,-100.00,ENE,63,0.0,8.0,82,-99.99,,,0.07,0.000000,,2013-03-07 15:02:00,
2013-03-07 07:33:00,33.0,28.0,-100.00,NNW,331,0.0,4.0,83,0.00,,,0.07,5.000000,,2013-03-07 15:33:00,
2013-03-07 07:43:00,33.0,28.0,-100.00,NNW,331,0.0,4.0,83,0.00,,,0.07,5.000000,,2013-03-07 15:43:00,
2013-03-07 07:52:00,33.0,28.0,-100.00,NNW,331,0.0,4.0,83,0.00,,,0.07,5.000000,,2013-03-07 15:52:00,
2013-03-07 08:01:00,33.0,28.0,-100.00,NNW,331,0.0,4.0,83,0.00,,,0.07,5.000000,,2013-03-07 16:01:00,
2013-03-07 08:33:00,35.0,28.0,-100.00,SE,124,0.0,4.0,75,0.00,,,0.07,61.000000,,2013-03-07 16:33:00,
2013-03-07 08:43:00,35.0,28.0,-100.00,SE,124,0.0,4.0,75,0.00,,,0.07,61.000000,,2013-03-07 16:43:00,
2013-03-07 08:53:00,35.0,28.0,-100.00,SE,124,0.0,4.0,75,0.00,,,0.07,61.000000,,2013-03-07 16:53:00,
2013-03-07 09:01:00,35.0,28.0,-100.00,SE,124,0.0,4.0,75,0.00,,,0.07,61.000000,,2013-03-07 17:01:00,
2013-03-07 09:33:00,37.0,29.0,-100.00,SSE,165,0.0,5.0,72,0.00,,,0.07,228.000000,,2013-03-07 17:33:00,
2013-03-07 09:44:00,37.0,29.0,-100.00,SSE,165,0.0,5.0,72,0.00,,,0.07,228.000000,,2013-03-07 17:44:00,
2013-03-07 09:54:00,37.0,29.0,-100.00,SSE,165,0.0,5.0,72,0.00,,,0.07,228.000000,,2013-03-07 17:54:00,
2013-03-07 10:02:00,37.0,29.0,-100.00,SSE,165,0.0,5.0,72,0.00,,,0.07,228.000000,,2013-03-07 18:02:00,
2013-03-07 10:32:00,37.0,30.0,-100.00,SSW,201,4.0,5.0,76,0.00,,,0.07,355.000000,,2013-03-07 18:32:00,
2013-03-07 10:42:00,37.0,30.0,-100.00,SSW,201,4.0,5.0,76,0.00,,,0.07,355.000000,,2013-03-07 18:42:00,
2013-03-07 10:52:00,37.0,30.0,-100.00,SSW,201,4.0,5.0,76,0.00,,,0.07,355.000000,,2013-03-07 18:52:00,
2013-03-07 11:02:00,37.0,30.0,-100.00,SSW,201,4.0,5.0,76,0.00,,,0.07,355.000000,,2013-03-07 19:02:00,
2013-03-07 11:35:00,39.0,30.0,-100.00,SSE,159,4.0,11.0,71,0.00,,,0.07,352.000000,,2013-03-07 19:35:00,
2013-03-07 11:44:00,39.0,30.0,-100.00,SSE,159,4.0,11.0,71,0.00,,,0.07,352.000000,,2013-03-07 19:44:00,
2013-03-07 11:52:00,39.0,30.0,-100.00,SSE,159,4.0,11.0,71,0.00,,,0.07,352.000000,,2013-03-07 19:52:00,
2013-03-07 12:01:00,39.0,30.0,-100.00,SSE,159,4.0,11.0,71,0.00,,,0.07,352.000000,,2013-03-07 20:01:00,
2013-03-07 12:34:00,41.0,31.0,-100.00,SSE,162,5.0,10.0,66,0.00,,,-99.99,516.000000,,2013-03-07 20:34:00,
2013-03-07 12:43:00,41.0,31.0,-100.00,SSE,162,5.0,10.0,66,0.00,,,-99.99,516.000000,,2013-03-07 20:43:00,
2013-03-07 12:53:00,41.0,31.0,-100.00,SSE,162,5.0,10.0,66,0.00,,,-99.99,516.000000,,2013-03-07 20:53:00,
2013-03-07 13:02:00,41.0,31.0,-100.00,SSE,162,5.0,10.0,66,0.00,,,-99.99,516.000000,,2013-03-07 21:02:00,
2013-03-07 13:33:00,45.0,29.0,-100.00,South,185,5.0,10.0,54,0.00,,,0.07,668.000000,,2013-03-07 21:33:00,
2013-03-07 13:43:00,45.0,29.0,-100.00,South,185,5.0,10.0,54,0.00,,,0.07,668.000000,,2013-03-07 21:43:00,
2013-03-07 13:52:00,45.0,29.0,-100.00,South,185,5.0,10.0,54,0.00,,,0.07,668.000000,,2013-03-07 21:52:00,
2013-03-07 14:01:00,45.0,29.0,-100.00,South,185,5.0,10.0,54,0.00,,,0.07,668.000000,,2013-03-07 22:01:00,
2013-03-07 14:33:00,47.0,29.0,-100.00,South,189,5.0,11.0,49,0.00,,,0.07,817.000000,,2013-03-07 22:33:00,
2013-03-07 15:34:00,43.0,28.0,-100.00,South,186,5.0,16.0,54,0.00,,,0.05,573.000000,,2013-03-07 23:34:00,
2013-03-07 15:44:00,43.0,28.0,-100.00,South,186,5.0,16.0,54,0.00,,,0.05,573.000000,,2013-03-07 23:44:00,
2013-03-07 15:53:00,43.0,28.0,-100.00,South,186,5.0,16.0,54,0.00,,,0.05,573.000000,,2013-03-07 23:53:00,
2013-03-07 16:02:00,43.0,28.0,-100.00,South,186,5.0,16.0,54,0.00,,,0.05,573.000000,,2013-03-08 00:02:00,
2013-03-07 16:34:00,39.0,29.0,-100.00,ENE,70,1.0,13.0,67,0.00,,,0.01,177.000000,,2013-03-08 00:34:00,
2013-03-07 16:44:00,39.0,29.0,-100.00,ENE,70,1.0,13.0,67,0.00,,,0.01,177.000000,,2013-03-08 00:44:00,
2013-03-07 16:53:00,39.0,29.0,-100.00,ENE,70,1.0,13.0,67,0.00,,,0.01,177.000000,,2013-03-08 00:53:00,
2013-03-07 17:01:00,39.0,29.0,-100.00,ENE,70,1.0,13.0,67,0.00,,,0.01,177.000000,,2013-03-08 01:01:00,
2013-03-07 17:33:00,35.0,28.0,-100.00,NNW,343,1.0,7.0,74,0.00,,,0.00,67.000000,,2013-03-08 01:33:00,
2013-03-07 17:42:00,35.0,28.0,-100.00,NNW,343,1.0,7.0,74,0.00,,,0.00,67.000000,,2013-03-08 01:42:00,
2013-03-07 17:52:00,35.0,28.0,-100.00,NNW,343,1.0,7.0,74,0.00,,,0.00,67.000000,,2013-03-08 01:52:00,
2013-03-07 18:01:00,35.0,28.0,-100.00,NNW,343,1.0,7.0,74,0.00,,,0.00,67.000000,,2013-03-08 02:01:00,
2013-03-07 18:32:00,34.0,30.0,-100.00,NW,314,0.0,5.0,84,0.01,,,0.01,17.000000,,2013-03-08 02:32:00,
2013-03-07 18:42:00,34.0,30.0,-100.00,NW,314,0.0,5.0,84,0.01,,,0.01,17.000000,,2013-03-08 02:42:00,
2013-03-07 18:52:00,34.0,30.0,-100.00,NW,314,0.0,5.0,84,0.01,,,0.01,17.000000,,2013-03-08 02:52:00,
2013-03-07 19:33:00,33.0,30.0,-100.00,NNW,328,0.0,3.0,90,0.00,,,0.01,0.000000,,2013-03-08 03:33:00,
2013-03-07 19:43:00,33.0,30.0,-100.00,NNW,328,0.0,3.0,90,0.00,,,0.01,0.000000,,2013-03-08 03:43:00,
2013-03-07 19:52:00,33.0,30.0,-100.00,NNW,328,0.0,3.0,90,0.00,,,0.01,0.000000,,2013-03-08 03:52:00,
2013-03-07 20:01:00,33.0,30.0,-100.00,NNW,328,0.0,3.0,90,0.00,,,0.01,0.000000,,2013-03-08 04:01:00,
2013-03-07 20:32:00,32.0,30.0,-100.00,NW,318,0.0,2.0,91,0.00,,,0.01,0.000000,,2013-03-08 04:32:00,
2013-03-07 20:42:00,32.0,30.0,-100.00,NW,318,0.0,2.0,91,0.00,,,0.01,0.000000,,2013-03-08 04:42:00,
2013-03-07 20:52:00,32.0,30.0,-100.00,NW,318,0.0,2.0,91,0.00,,,0.01,0.000000,,2013-03-08 04:52:00,
2013-03-07 21:01:00,32.0,30.0,-100.00,NW,318,0.0,2.0,91,0.00,,,0.01,0.000000,,2013-03-08 05:01:00,
2013-03-07 21:33:00,32.0,29.0,-100.00,North,356,0.0,0.0,90,0.00,,,0.01,0.000000,,2013-03-08 05:33:00,
2013-03-07 21:42:00,32.0,29.0,-100.00,North,356,0.0,0.0,90,0.00,,,0.01,0.000000,,2013-03-08 05:42:00,
2013-03-07 21:52:00,32.0,29.0,-100.00,North,356,0.0,0.0,90,0.00,,,0.01,0.000000,,2013-03-08 05:52:00,
2013-03-07 22:01:00,32.0,29.0,-100.00,North,356,0.0,0.0,90,0.00,,,0.01,0.000000,,2013-03-08 06:01:00,
2013-03-07 22:32:00,31.0,29.0,-100.00,NW,317,0.0,0.0,91,0.00,,,0.01,0.000000,,2013-03-08 06:32:00,
2013-03-07 22:42:00,31.0,29.0,-100.00,NW,317,0.0,0.0,91,0.00,,,0.01,0.000000,,2013-03-08 06:42:00,
2013-03-07 22:52:00,31.0,29.0,-100.00,NW,317,0.0,0.0,91,0.00,,,0.01,0.000000,,2013-03-08 06:52:00,
2013-03-07 23:01:00,31.0,29.0,-100.00,NW,317,0.0,0.0,91,0.00,,,0.01,0.000000,,2013-03-08 07:01:00,
2013-03-07 23:32:00,31.0,28.0,-100.00,North,355,0.0,0.0,89,0.00,,,0.01,0.000000,,2013-03-08 07:32:00,
2013-03-07 23:42:00,31.0,28.0,-100.00,North,355,0.0,0.0,89,0.00,,,0.01,0.000000,,2013-03-08 07:42:00,
2013-03-07 23:52:00,31.0,28.0,-100.00,North,355,0.0,0.0,89,0.00,,,0.01,0.000000,,2013-03-08 07:52:00,